createdAt,value
2017-05-29T00:00:09.965Z,0
2017-05-29T00:01:22.549Z,0
2017-05-29T00:02:34.778Z,0
2017-05-29T00:03:47.328Z,0
2017-05-29T00:04:59.899Z,0
2017-05-29T00:06:12.148Z,0
2017-05-29T00:07:24.713Z,0
2017-05-29T00:08:36.662Z,0
2017-05-29T00:09:49.204Z,0
2017-05-29T00:11:01.445Z,0
2017-05-29T00:12:13.688Z,0
2017-05-29T00:13:25.942Z,0
2017-05-29T00:14:38.468Z,0
2017-05-29T00:15:51.008Z,0
2017-05-29T00:17:02.947Z,0
2017-05-29T00:18:14.879Z,0
2017-05-29T00:19:27.425Z,0
2017-05-29T00:20:39.667Z,0
2017-05-29T00:21:52.213Z,0
2017-05-29T00:23:04.759Z,0
2017-05-29T00:24:16.673Z,0
2017-05-29T00:25:29.229Z,0
2017-05-29T00:26:41.775Z,0
2017-05-29T00:27:54.337Z,0
2017-05-29T00:29:06.293Z,0
2017-05-29T00:30:18.507Z,0
2017-05-29T00:31:31.060Z,0
2017-05-29T00:32:43.626Z,0
2017-05-29T00:33:56.146Z,0
2017-05-29T00:35:08.402Z,0
2017-05-29T00:36:20.642Z,0
2017-05-29T00:37:33.202Z,0
2017-05-29T00:38:45.448Z,0
2017-05-29T00:39:57.981Z,0
2017-05-29T00:41:10.543Z,0
2017-05-29T00:42:22.472Z,0
2017-05-29T00:43:34.732Z,0
2017-05-29T00:44:47.286Z,0
2017-05-29T00:45:59.526Z,0
2017-05-29T00:47:11.494Z,0
2017-05-29T00:48:23.441Z,0
2017-05-29T00:49:35.699Z,0
2017-05-29T00:50:48.240Z,0
2017-05-29T00:52:01.036Z,0
2017-05-29T00:53:12.656Z,0
2017-05-29T00:54:24.896Z,0
2017-05-29T00:55:37.427Z,0
2017-05-29T00:56:50.012Z,0
2017-05-29T00:58:01.665Z,0
2017-05-29T00:59:13.892Z,0
2017-05-29T01:00:26.438Z,0
2017-05-29T01:01:38.983Z,0
2017-05-29T01:02:51.224Z,0
2017-05-29T01:04:03.770Z,0
2017-05-29T01:05:16.293Z,0
2017-05-29T01:06:28.814Z,0
2017-05-29T01:07:40.738Z,0
2017-05-29T01:08:52.980Z,0
2017-05-29T01:10:05.529Z,0
2017-05-29T01:11:18.063Z,0
2017-05-29T01:12:30.296Z,0
2017-05-29T01:13:42.558Z,0
2017-05-29T01:14:55.090Z,0
2017-05-29T01:16:07.630Z,0
2017-05-29T01:17:19.875Z,0
2017-05-29T01:18:32.427Z,0
2017-05-29T01:19:44.644Z,0
2017-05-29T01:20:57.187Z,0
2017-05-29T01:22:08.852Z,0
2017-05-29T01:23:20.764Z,0
2017-05-29T01:24:33.550Z,0
2017-05-29T01:25:46.118Z,0
2017-05-29T01:26:58.645Z,0
2017-05-29T01:28:10.284Z,0
2017-05-29T01:29:22.852Z,0
2017-05-29T01:30:34.489Z,0
2017-05-29T01:31:47.026Z,0
2017-05-29T01:32:59.547Z,0
2017-05-29T01:34:11.473Z,0
2017-05-29T01:35:23.714Z,0
2017-05-29T01:36:35.965Z,0
2017-05-29T01:37:48.526Z,0
2017-05-29T01:39:00.769Z,0
2017-05-29T01:40:13.300Z,0
2017-05-29T01:41:25.242Z,0
2017-05-29T01:42:37.165Z,0
2017-05-29T01:43:49.727Z,0
2017-05-29T01:45:01.976Z,0
2017-05-29T01:46:14.228Z,0
2017-05-29T01:47:26.173Z,0
2017-05-29T01:48:38.725Z,0
2017-05-29T01:49:51.265Z,0
2017-05-29T01:51:03.811Z,0
2017-05-29T01:52:16.031Z,0
2017-05-29T01:53:27.999Z,0
2017-05-29T01:54:40.499Z,0
2017-05-29T01:55:53.022Z,0
2017-05-29T01:57:05.539Z,0
2017-05-29T01:58:17.465Z,0
2017-05-29T01:59:29.709Z,0
2017-05-29T02:00:42.208Z,0
2017-05-29T02:01:54.749Z,0
2017-05-29T02:03:06.678Z,0
2017-05-29T02:04:19.216Z,0
2017-05-29T02:05:31.741Z,0
2017-05-29T02:06:44.287Z,4
2017-05-29T02:07:57.106Z,4
2017-05-29T02:09:09.628Z,4
2017-05-29T02:10:21.874Z,0
2017-05-29T02:11:34.412Z,4
2017-05-29T02:12:46.340Z,4
2017-05-29T02:13:58.861Z,4
2017-05-29T02:15:11.379Z,4
2017-05-29T02:16:23.647Z,4
2017-05-29T02:17:36.199Z,8
2017-05-29T02:18:48.486Z,8
2017-05-29T02:20:00.759Z,8
2017-05-29T02:21:13.287Z,8
2017-05-29T02:22:25.508Z,12
2017-05-29T02:23:38.050Z,16
2017-05-29T02:24:50.288Z,16
2017-05-29T02:26:02.242Z,20
2017-05-29T02:27:14.469Z,24
2017-05-29T02:28:27.010Z,28
2017-05-29T02:29:39.855Z,32
2017-05-29T02:30:52.398Z,36
2017-05-29T02:32:04.597Z,44
2017-05-29T02:33:17.118Z,44
2017-05-29T02:34:29.342Z,56
2017-05-29T02:35:41.612Z,64
2017-05-29T02:36:54.151Z,68
2017-05-29T02:38:06.401Z,72
2017-05-29T02:39:18.647Z,80
2017-05-29T02:40:31.172Z,88
2017-05-29T02:41:43.746Z,100
2017-05-29T02:42:56.285Z,116
2017-05-29T02:44:08.509Z,128
2017-05-29T02:45:21.033Z,144
2017-05-29T02:46:33.565Z,160
2017-05-29T02:47:45.793Z,172
2017-05-29T02:48:57.719Z,176
2017-05-29T02:50:09.639Z,188
2017-05-29T02:51:22.431Z,220
2017-05-29T02:52:34.952Z,256
2017-05-29T02:53:47.494Z,272
2017-05-29T02:54:59.724Z,300
2017-05-29T02:56:12.268Z,336
2017-05-29T02:57:24.511Z,376
2017-05-29T02:58:36.735Z,416
2017-05-29T02:59:49.281Z,460
2017-05-29T03:01:01.844Z,488
2017-05-29T03:02:14.087Z,524
2017-05-29T03:03:26.319Z,552
2017-05-29T03:04:38.861Z,588
2017-05-29T03:05:51.387Z,620
2017-05-29T03:07:03.932Z,660
2017-05-29T03:08:16.178Z,704
2017-05-29T03:09:28.437Z,772
2017-05-29T03:10:40.672Z,828
2017-05-29T03:11:53.268Z,880
2017-05-29T03:13:05.508Z,956
2017-05-29T03:14:17.429Z,1048
2017-05-29T03:15:29.970Z,1132
2017-05-29T03:16:42.196Z,1176
2017-05-29T03:17:54.737Z,1208
2017-05-29T03:19:07.288Z,1280
2017-05-29T03:20:19.812Z,1376
2017-05-29T03:21:32.354Z,1504
2017-05-29T03:22:44.604Z,1668
2017-05-29T03:23:57.101Z,1660
2017-05-29T03:25:09.659Z,1608
2017-05-29T03:26:22.208Z,1584
2017-05-29T03:27:34.462Z,1628
2017-05-29T03:28:46.980Z,1696
2017-05-29T03:29:59.522Z,1772
2017-05-29T03:31:11.753Z,1856
2017-05-29T03:32:23.673Z,1956
2017-05-29T03:33:36.216Z,2064
2017-05-29T03:34:48.763Z,2164
2017-05-29T03:36:01.034Z,2260
2017-05-29T03:37:12.676Z,2384
2017-05-29T03:38:25.223Z,2488
2017-05-29T03:39:37.772Z,2608
2017-05-29T03:40:50.317Z,2704
2017-05-29T03:42:02.539Z,2700
2017-05-29T03:43:15.128Z,2684
2017-05-29T03:44:27.352Z,2840
2017-05-29T03:45:39.907Z,2900
2017-05-29T03:46:52.514Z,2848
2017-05-29T03:48:04.766Z,2848
2017-05-29T03:49:16.689Z,2944
2017-05-29T03:50:28.910Z,3140
2017-05-29T03:51:41.470Z,3328
2017-05-29T03:52:54.023Z,3276
2017-05-29T03:54:06.573Z,3324
2017-05-29T03:55:19.137Z,3324
2017-05-29T03:56:31.403Z,3344
2017-05-29T03:57:43.636Z,3556
2017-05-29T03:58:56.199Z,3968
2017-05-29T04:00:08.153Z,4188
2017-05-29T04:01:20.399Z,3992
2017-05-29T04:02:32.950Z,3868
2017-05-29T04:03:45.504Z,3916
2017-05-29T04:04:57.733Z,4048
2017-05-29T04:06:09.680Z,4172
2017-05-29T04:07:21.925Z,4212
2017-05-29T04:08:34.137Z,4148
2017-05-29T04:09:46.686Z,4240
2017-05-29T04:10:58.941Z,4296
2017-05-29T04:12:11.485Z,4376
2017-05-29T04:13:23.682Z,4520
2017-05-29T04:14:36.248Z,4644
2017-05-29T04:15:48.213Z,4756
2017-05-29T04:17:00.162Z,4832
2017-05-29T04:18:12.416Z,4920
2017-05-29T04:19:25.036Z,5096
2017-05-29T04:20:36.984Z,5268
2017-05-29T04:21:49.529Z,5496
2017-05-29T04:23:02.076Z,5704
2017-05-29T04:24:14.293Z,5904
2017-05-29T04:25:26.809Z,6132
2017-05-29T04:26:39.379Z,6376
2017-05-29T04:27:51.922Z,6604
2017-05-29T04:29:04.754Z,6840
2017-05-29T04:30:16.098Z,7028
2017-05-29T04:31:28.317Z,7096
2017-05-29T04:32:40.859Z,7152
2017-05-29T04:33:52.806Z,7208
2017-05-29T04:35:05.109Z,7268
2017-05-29T04:36:17.344Z,7336
2017-05-29T04:37:29.897Z,7420
2017-05-29T04:38:42.421Z,7520
2017-05-29T04:39:54.969Z,7616
2017-05-29T04:41:07.510Z,7720
2017-05-29T04:42:19.163Z,7820
2017-05-29T04:43:31.107Z,7924
2017-05-29T04:44:43.325Z,8036
2017-05-29T04:45:55.588Z,8104
2017-05-29T04:47:07.835Z,8240
2017-05-29T04:48:20.085Z,8444
2017-05-29T04:49:32.606Z,8584
2017-05-29T04:50:45.172Z,8716
2017-05-29T04:51:57.394Z,8856
2017-05-29T04:53:09.648Z,8960
2017-05-29T04:54:22.207Z,9044
2017-05-29T04:55:34.128Z,9108
2017-05-29T04:56:46.661Z,9144
2017-05-29T04:57:58.906Z,9088
2017-05-29T04:59:11.399Z,8944
2017-05-29T05:00:23.646Z,8824
2017-05-29T05:01:36.140Z,8680
2017-05-29T05:02:48.083Z,8460
2017-05-29T05:04:00.333Z,8236
2017-05-29T05:05:12.873Z,8384
2017-05-29T05:06:24.828Z,8544
2017-05-29T05:07:37.389Z,8688
2017-05-29T05:08:49.611Z,8900
2017-05-29T05:10:01.541Z,9096
2017-05-29T05:11:13.486Z,9292
2017-05-29T05:12:25.746Z,9900
2017-05-29T05:13:38.320Z,10448
2017-05-29T05:14:50.571Z,10112
2017-05-29T05:16:02.816Z,10052
2017-05-29T05:17:15.063Z,11776
2017-05-29T05:18:27.313Z,12492
2017-05-29T05:19:39.558Z,12064
2017-05-29T05:20:52.104Z,9800
2017-05-29T05:22:04.676Z,12448
2017-05-29T05:23:17.496Z,10732
2017-05-29T05:24:29.468Z,17408
2017-05-29T05:25:41.708Z,17696
2017-05-29T05:26:54.230Z,16096
2017-05-29T05:28:06.475Z,14592
2017-05-29T05:29:19.021Z,18336
2017-05-29T05:30:31.264Z,15636
2017-05-29T05:31:43.521Z,11972
2017-05-29T05:32:55.163Z,10344
2017-05-29T05:34:07.729Z,9272
2017-05-29T05:35:19.376Z,8968
2017-05-29T05:36:31.596Z,8032
2017-05-29T05:37:43.564Z,7224
2017-05-29T05:38:55.514Z,7124
2017-05-29T05:40:08.064Z,8012
2017-05-29T05:41:20.308Z,9764
2017-05-29T05:42:32.552Z,10468
2017-05-29T05:43:45.101Z,9832
2017-05-29T05:44:57.945Z,12944
2017-05-29T05:46:10.493Z,14712
2017-05-29T05:47:22.738Z,10700
2017-05-29T05:48:35.286Z,10004
2017-05-29T05:49:47.828Z,11048
2017-05-29T05:51:00.351Z,11160
2017-05-29T05:52:12.612Z,10132
2017-05-29T05:53:25.142Z,9904
2017-05-29T05:54:37.413Z,10664
2017-05-29T05:55:49.935Z,11348
2017-05-29T05:57:02.195Z,12200
2017-05-29T05:58:14.422Z,13160
2017-05-29T05:59:26.351Z,12460
2017-05-29T06:00:38.608Z,12572
2017-05-29T06:01:51.161Z,13608
2017-05-29T06:03:03.383Z,16544
2017-05-29T06:04:15.320Z,17984
2017-05-29T06:05:27.594Z,17068
2017-05-29T06:06:39.837Z,16296
2017-05-29T06:07:52.383Z,15324
2017-05-29T06:09:04.605Z,15580
2017-05-29T06:10:16.858Z,15500
2017-05-29T06:11:29.096Z,17728
2017-05-29T06:12:41.628Z,16884
2017-05-29T06:13:54.166Z,11672
2017-05-29T06:15:06.695Z,11656
2017-05-29T06:16:19.307Z,13372
2017-05-29T06:17:31.780Z,15604
2017-05-29T06:18:44.032Z,23744
2017-05-29T06:19:56.276Z,34240
2017-05-29T06:21:08.824Z,23584
2017-05-29T06:22:21.067Z,26432
2017-05-29T06:23:33.309Z,33856
2017-05-29T06:24:45.559Z,26400
2017-05-29T06:25:58.123Z,23456
2017-05-29T06:27:10.359Z,20032
2017-05-29T06:28:22.601Z,25952
2017-05-29T06:29:34.845Z,20064
2017-05-29T06:30:46.807Z,18176
2017-05-29T06:31:59.362Z,23424
2017-05-29T06:33:11.905Z,27520
2017-05-29T06:34:24.429Z,40448
2017-05-29T06:35:36.699Z,49856
2017-05-29T06:36:48.964Z,20480
2017-05-29T06:38:01.230Z,25120
2017-05-29T06:39:14.065Z,30528
2017-05-29T06:40:26.034Z,39072
2017-05-29T06:41:38.317Z,32448
2017-05-29T06:42:50.601Z,29472
2017-05-29T06:44:02.864Z,33696
2017-05-29T06:45:14.867Z,31392
2017-05-29T06:46:27.113Z,37856
2017-05-29T06:47:38.759Z,38784
2017-05-29T06:48:51.327Z,42368
2017-05-29T06:50:03.905Z,44672
2017-05-29T06:51:16.193Z,45280
2017-05-29T06:52:28.136Z,50016
2017-05-29T06:53:40.665Z,55712
2017-05-29T06:54:52.606Z,56992
2017-05-29T06:56:05.179Z,56480
2017-05-29T06:57:17.745Z,56704
2017-05-29T06:58:30.299Z,51616
2017-05-29T06:59:42.841Z,52448
2017-05-29T07:00:55.636Z,55968
2017-05-29T07:02:07.574Z,56928
2017-05-29T07:03:20.133Z,57664
2017-05-29T07:04:32.719Z,60544
2017-05-29T07:05:44.970Z,53920
2017-05-29T07:06:57.516Z,53760
2017-05-29T07:08:09.762Z,54752
2017-05-29T07:09:21.730Z,56224
2017-05-29T07:10:33.982Z,57216
2017-05-29T07:11:46.569Z,59200
2017-05-29T07:12:59.129Z,56448
2017-05-29T07:14:11.692Z,59808
2017-05-29T07:15:24.237Z,62400
2017-05-29T07:16:36.886Z,60288
2017-05-29T07:17:49.445Z,60928
2017-05-29T07:19:02.018Z,60448
2017-05-29T07:20:13.988Z,62912
2017-05-29T07:21:26.218Z,61984
2017-05-29T07:22:38.161Z,60224
2017-05-29T07:23:50.413Z,61216
2017-05-29T07:25:02.660Z,62112
2017-05-29T07:26:14.600Z,58976
2017-05-29T07:27:25.921Z,57888
2017-05-29T07:28:38.169Z,59136
2017-05-29T07:29:50.142Z,57184
2017-05-29T07:31:02.726Z,58112
2017-05-29T07:32:14.708Z,60448
2017-05-29T07:33:26.980Z,63168
2017-05-29T07:34:38.950Z,62048
2017-05-29T07:35:51.510Z,61856
2017-05-29T07:37:04.063Z,64576
2017-05-29T07:38:16.012Z,66144
2017-05-29T07:39:27.979Z,65120
2017-05-29T07:40:40.248Z,64704
2017-05-29T07:41:52.490Z,63552
2017-05-29T07:43:05.044Z,63360
2017-05-29T07:44:17.306Z,64128
2017-05-29T07:45:29.860Z,63776
2017-05-29T07:46:41.809Z,63424
2017-05-29T07:47:54.378Z,65408
2017-05-29T07:49:06.921Z,69536
2017-05-29T07:50:19.493Z,69568
2017-05-29T07:51:31.739Z,71712
2017-05-29T07:52:44.016Z,70624
2017-05-29T07:53:56.586Z,71712
2017-05-29T07:55:09.149Z,74400
2017-05-29T07:56:21.378Z,74720
2017-05-29T07:57:33.365Z,72128
2017-05-29T07:58:45.945Z,74080
2017-05-29T07:59:58.504Z,75360
2017-05-29T08:01:10.436Z,76992
2017-05-29T08:02:22.703Z,78752
2017-05-29T08:03:34.651Z,76352
2017-05-29T08:04:46.924Z,74496
2017-05-29T08:05:59.468Z,72288
2017-05-29T08:07:11.743Z,72928
2017-05-29T08:08:24.029Z,72480
2017-05-29T08:09:36.585Z,73664
2017-05-29T08:10:48.599Z,73792
2017-05-29T08:12:01.170Z,74016
2017-05-29T08:13:13.116Z,76960
2017-05-29T08:14:25.066Z,79840
2017-05-29T08:15:37.372Z,82528
2017-05-29T08:16:49.629Z,80256
2017-05-29T08:18:01.918Z,79008
2017-05-29T08:19:14.215Z,79136
2017-05-29T08:20:26.469Z,79840
2017-05-29T08:21:38.742Z,80544
2017-05-29T08:22:51.333Z,80320
2017-05-29T08:24:03.262Z,80704
2017-05-29T08:25:15.528Z,81984
2017-05-29T08:26:27.799Z,82464
2017-05-29T08:27:40.042Z,76896
2017-05-29T08:28:52.309Z,84992
2017-05-29T08:30:04.601Z,78496
2017-05-29T08:31:16.884Z,66304
2017-05-29T08:32:29.127Z,80896
2017-05-29T08:33:41.390Z,77408
2017-05-29T08:34:53.365Z,80064
2017-05-29T08:36:05.914Z,87296
2017-05-29T08:37:17.561Z,88992
2017-05-29T08:38:29.831Z,85536
2017-05-29T08:39:42.082Z,86816
2017-05-29T08:40:54.673Z,87168
2017-05-29T08:42:06.919Z,88064
2017-05-29T08:43:18.881Z,85056
2017-05-29T08:44:30.538Z,85600
2017-05-29T08:45:43.140Z,86304
2017-05-29T08:46:55.402Z,84416
2017-05-29T08:48:07.627Z,82944
2017-05-29T08:49:20.200Z,84640
2017-05-29T08:50:32.765Z,82848
2017-05-29T08:51:44.413Z,79264
2017-05-29T08:52:56.660Z,82176
2017-05-29T08:54:09.228Z,82080
2017-05-29T08:55:20.898Z,84128
2017-05-29T08:56:32.871Z,80992
2017-05-29T08:57:45.147Z,79552
2017-05-29T08:58:57.418Z,78336
2017-05-29T09:00:09.984Z,80384
2017-05-29T09:01:21.637Z,82272
2017-05-29T09:02:34.202Z,83136
2017-05-29T09:03:46.773Z,79360
2017-05-29T09:04:59.342Z,74272
2017-05-29T09:06:11.290Z,74464
2017-05-29T09:07:23.280Z,73728
2017-05-29T09:08:35.557Z,81728
2017-05-29T09:09:47.826Z,81920
2017-05-29T09:10:59.771Z,61568
2017-05-29T09:12:12.320Z,83168
2017-05-29T09:13:24.587Z,81152
2017-05-29T09:14:36.838Z,65888
2017-05-29T09:15:49.126Z,63872
2017-05-29T09:17:01.681Z,44768
2017-05-29T09:18:13.949Z,77568
2017-05-29T09:19:25.917Z,79328
2017-05-29T09:20:38.191Z,80704
2017-05-29T09:21:50.487Z,75744
2017-05-29T09:23:02.759Z,66016
2017-05-29T09:24:14.725Z,77952
2017-05-29T09:25:26.968Z,84864
2017-05-29T09:26:39.492Z,74752
2017-05-29T09:27:51.743Z,48928
2017-05-29T09:29:04.289Z,49056
2017-05-29T09:30:16.562Z,45280
2017-05-29T09:31:28.527Z,58208
2017-05-29T09:32:41.094Z,54944
2017-05-29T09:33:53.061Z,62912
2017-05-29T09:35:05.318Z,77664
2017-05-29T09:36:17.590Z,75584
2017-05-29T09:37:30.137Z,77568
2017-05-29T09:38:42.755Z,75744
2017-05-29T09:39:55.028Z,75808
2017-05-29T09:41:07.295Z,79552
2017-05-29T09:42:19.544Z,79392
2017-05-29T09:43:31.236Z,69888
2017-05-29T09:44:43.785Z,81792
2017-05-29T09:45:56.362Z,81312
2017-05-29T09:47:08.623Z,82560
2017-05-29T09:48:21.215Z,81376
2017-05-29T09:49:33.482Z,81600
2017-05-29T09:50:46.061Z,78368
2017-05-29T09:51:58.631Z,79040
2017-05-29T09:53:10.558Z,76512
2017-05-29T09:54:23.123Z,76288
2017-05-29T09:55:35.373Z,78176
2017-05-29T09:56:47.945Z,79488
2017-05-29T09:57:59.941Z,77120
2017-05-29T09:59:12.212Z,76640
2017-05-29T10:00:24.186Z,78464
2017-05-29T10:01:36.424Z,81856
2017-05-29T10:02:48.996Z,81120
2017-05-29T10:04:01.265Z,80320
2017-05-29T10:05:13.217Z,81344
2017-05-29T10:06:25.776Z,81536
2017-05-29T10:07:38.032Z,80032
2017-05-29T10:08:50.303Z,80992
2017-05-29T10:10:02.278Z,79872
2017-05-29T10:11:14.842Z,80960
2017-05-29T10:12:27.392Z,76992
2017-05-29T10:13:39.658Z,77696
2017-05-29T10:14:52.204Z,78400
2017-05-29T10:16:04.493Z,79456
2017-05-29T10:17:16.776Z,80416
2017-05-29T10:18:29.363Z,80160
2017-05-29T10:19:41.620Z,80064
2017-05-29T10:20:54.202Z,80512
2017-05-29T10:22:06.500Z,81504
2017-05-29T10:23:17.556Z,82496
2017-05-29T10:24:29.822Z,78176
2017-05-29T10:25:41.768Z,77952
2017-05-29T10:26:53.989Z,81088
2017-05-29T10:28:06.554Z,79776
2017-05-29T10:29:17.934Z,81568
2017-05-29T10:30:30.205Z,81728
2017-05-29T10:31:41.872Z,80992
2017-05-29T10:32:54.439Z,81216
2017-05-29T10:34:06.992Z,82048
2017-05-29T10:35:18.961Z,82848
2017-05-29T10:36:31.209Z,83936
2017-05-29T10:37:43.473Z,83616
2017-05-29T10:38:56.018Z,68256
2017-05-29T10:40:07.994Z,82624
2017-05-29T10:41:19.939Z,87488
2017-05-29T10:42:32.216Z,87712
2017-05-29T10:43:44.760Z,86752
2017-05-29T10:44:56.727Z,86208
2017-05-29T10:46:08.702Z,85984
2017-05-29T10:47:20.045Z,84032
2017-05-29T10:48:32.624Z,83200
2017-05-29T10:49:44.890Z,84192
2017-05-29T10:50:57.477Z,83680
2017-05-29T10:52:09.413Z,83168
2017-05-29T10:53:21.377Z,80736
2017-05-29T10:54:33.948Z,79104
2017-05-29T10:55:46.220Z,80704
2017-05-29T10:56:58.779Z,84160
2017-05-29T10:58:11.036Z,81568
2017-05-29T10:59:22.713Z,78304
2017-05-29T11:00:34.979Z,78112
2017-05-29T11:01:47.247Z,81632
2017-05-29T11:02:59.767Z,83968
2017-05-29T11:04:12.038Z,59104
2017-05-29T11:05:23.958Z,65696
2017-05-29T11:06:36.505Z,79744
2017-05-29T11:07:48.804Z,83936
2017-05-29T11:09:01.071Z,81152
2017-05-29T11:10:13.020Z,80256
2017-05-29T11:11:25.592Z,83552
2017-05-29T11:12:37.877Z,81152
2017-05-29T11:13:50.145Z,81152
2017-05-29T11:15:02.727Z,78144
2017-05-29T11:16:14.991Z,69920
2017-05-29T11:17:27.260Z,79712
2017-05-29T11:18:39.542Z,79392
2017-05-29T11:19:52.115Z,78048
2017-05-29T11:21:03.783Z,75712
2017-05-29T11:22:15.756Z,76000
2017-05-29T11:23:27.726Z,76192
2017-05-29T11:24:40.289Z,74848
2017-05-29T11:25:52.870Z,72928
2017-05-29T11:27:05.435Z,72288
2017-05-29T11:28:17.677Z,74944
2017-05-29T11:29:29.927Z,76256
2017-05-29T11:30:42.473Z,75168
2017-05-29T11:31:54.693Z,74432
2017-05-29T11:33:07.268Z,72832
2017-05-29T11:34:19.857Z,71232
2017-05-29T11:35:32.132Z,72672
2017-05-29T11:36:44.373Z,73984
2017-05-29T11:37:56.951Z,75808
2017-05-29T11:39:09.291Z,75488
2017-05-29T11:40:21.885Z,74304
2017-05-29T11:41:34.141Z,71968
2017-05-29T11:42:46.707Z,72480
2017-05-29T11:43:58.948Z,73856
2017-05-29T11:45:11.520Z,72992
2017-05-29T11:46:23.212Z,72640
2017-05-29T11:47:35.469Z,70944
2017-05-29T11:48:48.042Z,68928
2017-05-29T11:50:00.636Z,68768
2017-05-29T11:51:13.195Z,67968
2017-05-29T11:52:25.168Z,70496
2017-05-29T11:53:37.724Z,72064
2017-05-29T11:54:50.292Z,71296
2017-05-29T11:56:02.866Z,70912
2017-05-29T11:57:15.435Z,70368
2017-05-29T11:58:27.688Z,69536
2017-05-29T11:59:39.677Z,68864
2017-05-29T12:00:51.939Z,66688
2017-05-29T12:02:04.192Z,63072
2017-05-29T12:03:16.439Z,65408
2017-05-29T12:04:28.688Z,65344
2017-05-29T12:05:41.237Z,65184
2017-05-29T12:06:53.204Z,63456
2017-05-29T12:08:05.767Z,64544
2017-05-29T12:09:18.020Z,65824
2017-05-29T12:10:30.318Z,64320
2017-05-29T12:11:42.891Z,62144
2017-05-29T12:12:55.480Z,61440
2017-05-29T12:14:08.026Z,60384
2017-05-29T12:15:19.726Z,60832
2017-05-29T12:16:32.285Z,62112
2017-05-29T12:17:44.542Z,62208
2017-05-29T12:18:57.110Z,62112
2017-05-29T12:20:09.380Z,62976
2017-05-29T12:21:21.958Z,62336
2017-05-29T12:22:34.231Z,61728
2017-05-29T12:23:46.768Z,63424
2017-05-29T12:24:59.343Z,64256
2017-05-29T12:26:11.910Z,63840
2017-05-29T12:27:23.877Z,64256
2017-05-29T12:28:36.455Z,62336
2017-05-29T12:29:48.723Z,60256
2017-05-29T12:31:01.295Z,60512
2017-05-29T12:32:13.865Z,61504
2017-05-29T12:33:25.839Z,63776
2017-05-29T12:34:38.084Z,67264
2017-05-29T12:35:50.671Z,69792
2017-05-29T12:37:03.253Z,71552
2017-05-29T12:38:15.522Z,71968
2017-05-29T12:39:27.510Z,71744
2017-05-29T12:40:39.489Z,71552
2017-05-29T12:41:52.078Z,68128
2017-05-29T12:43:04.657Z,66144
2017-05-29T12:44:17.226Z,67456
2017-05-29T12:45:29.497Z,67616
2017-05-29T12:46:41.786Z,67552
2017-05-29T12:47:54.096Z,67808
2017-05-29T12:49:05.782Z,68352
2017-05-29T12:50:17.422Z,58560
2017-05-29T12:51:29.674Z,52128
2017-05-29T12:52:42.219Z,58656
2017-05-29T12:53:54.796Z,41504
2017-05-29T12:55:07.379Z,49344
2017-05-29T12:56:19.325Z,37888
2017-05-29T12:57:31.602Z,45600
2017-05-29T12:58:44.099Z,58816
2017-05-29T12:59:56.648Z,46464
2017-05-29T13:01:08.609Z,50816
2017-05-29T13:02:20.858Z,62656
2017-05-29T13:03:33.108Z,68576
2017-05-29T13:04:45.375Z,65600
2017-05-29T13:05:57.355Z,64576
2017-05-29T13:07:09.624Z,64000
2017-05-29T13:08:21.870Z,63648
2017-05-29T13:09:34.433Z,62432
2017-05-29T13:10:46.711Z,61792
2017-05-29T13:11:58.983Z,61824
2017-05-29T13:13:11.397Z,61472
2017-05-29T13:14:23.947Z,61184
2017-05-29T13:15:36.522Z,61056
2017-05-29T13:16:49.083Z,61024
2017-05-29T13:18:01.360Z,60960
2017-05-29T13:19:13.909Z,60512
2017-05-29T13:20:26.171Z,60960
2017-05-29T13:21:38.422Z,59520
2017-05-29T13:22:50.985Z,59712
2017-05-29T13:24:03.556Z,59424
2017-05-29T13:25:15.238Z,59776
2017-05-29T13:26:27.173Z,58336
2017-05-29T13:27:39.472Z,57600
2017-05-29T13:28:52.025Z,60608
2017-05-29T13:30:04.295Z,60832
2017-05-29T13:31:16.842Z,60704
2017-05-29T13:32:29.414Z,60224
2017-05-29T13:33:41.659Z,61216
2017-05-29T13:34:53.630Z,59520
2017-05-29T13:36:05.604Z,57856
2017-05-29T13:37:18.168Z,58400
2017-05-29T13:38:30.090Z,57600
2017-05-29T13:39:42.359Z,56352
2017-05-29T13:40:54.309Z,53920
2017-05-29T13:42:05.976Z,53344
2017-05-29T13:43:17.973Z,55936
2017-05-29T13:44:30.240Z,56160
2017-05-29T13:45:42.532Z,55488
2017-05-29T13:46:55.060Z,56224
2017-05-29T13:48:07.010Z,55264
2017-05-29T13:49:19.584Z,55200
2017-05-29T13:50:31.549Z,54080
2017-05-29T13:51:43.469Z,53536
2017-05-29T13:52:55.815Z,54112
2017-05-29T13:54:08.064Z,53984
2017-05-29T13:55:20.632Z,52352
2017-05-29T13:56:32.882Z,50912
2017-05-29T13:57:45.469Z,43872
2017-05-29T13:58:57.445Z,47840
2017-05-29T14:00:09.995Z,50496
2017-05-29T14:01:21.980Z,51456
2017-05-29T14:02:33.935Z,51200
2017-05-29T14:03:46.205Z,50048
2017-05-29T14:04:58.443Z,50016
2017-05-29T14:06:11.024Z,50816
2017-05-29T14:07:23.019Z,49408
2017-05-29T14:08:35.296Z,47424
2017-05-29T14:09:47.260Z,47200
2017-05-29T14:10:59.530Z,46336
2017-05-29T14:12:11.779Z,44256
2017-05-29T14:13:24.345Z,38144
2017-05-29T14:14:36.296Z,44704
2017-05-29T14:15:48.558Z,36992
2017-05-29T14:17:00.233Z,40448
2017-05-29T14:18:12.183Z,45824
2017-05-29T14:19:24.725Z,44448
2017-05-29T14:20:36.677Z,25376
2017-05-29T14:21:49.269Z,23040
2017-05-29T14:23:01.835Z,24192
2017-05-29T14:24:14.109Z,19936
2017-05-29T14:25:26.661Z,21824
2017-05-29T14:26:39.227Z,33952
2017-05-29T14:27:51.747Z,35744
2017-05-29T14:29:04.010Z,30144
2017-05-29T14:30:16.258Z,32832
2017-05-29T14:31:28.813Z,36288
2017-05-29T14:32:41.088Z,34496
2017-05-29T14:33:53.382Z,33024
2017-05-29T14:35:05.926Z,31424
2017-05-29T14:36:18.193Z,32256
2017-05-29T14:37:29.843Z,35936
2017-05-29T14:38:42.413Z,38656
2017-05-29T14:39:54.682Z,43904
2017-05-29T14:41:07.231Z,34496
2017-05-29T14:42:19.773Z,27936
2017-05-29T14:43:31.804Z,22240
2017-05-29T14:44:44.042Z,21280
2017-05-29T14:45:56.286Z,20224
2017-05-29T14:47:08.531Z,19616
2017-05-29T14:48:21.056Z,19456
2017-05-29T14:49:33.324Z,18688
2017-05-29T14:50:45.871Z,18496
2017-05-29T14:51:58.118Z,18464
2017-05-29T14:53:10.707Z,18144
2017-05-29T14:54:22.660Z,18176
2017-05-29T14:55:35.232Z,17920
2017-05-29T14:56:47.803Z,18112
2017-05-29T14:58:00.395Z,18176
2017-05-29T14:59:12.941Z,18944
2017-05-29T15:00:24.888Z,19392
2017-05-29T15:01:36.862Z,19680
2017-05-29T15:02:49.134Z,19776
2017-05-29T15:04:01.374Z,19808
2017-05-29T15:05:13.628Z,19840
2017-05-29T15:06:26.171Z,19872
2017-05-29T15:07:38.733Z,20448
2017-05-29T15:08:50.980Z,21024
2017-05-29T15:10:02.924Z,20896
2017-05-29T15:11:15.178Z,20192
2017-05-29T15:12:27.425Z,19744
2017-05-29T15:13:39.942Z,19456
2017-05-29T15:14:52.533Z,19264
2017-05-29T15:16:04.459Z,18624
2017-05-29T15:17:16.704Z,17984
2017-05-29T15:18:28.634Z,17664
2017-05-29T15:19:41.149Z,17440
2017-05-29T15:20:53.694Z,17408
2017-05-29T15:22:06.284Z,17600
2017-05-29T15:23:18.837Z,17920
2017-05-29T15:24:31.107Z,18208
2017-05-29T15:25:43.055Z,18592
2017-05-29T15:26:55.626Z,18688
2017-05-29T15:28:07.293Z,18816
2017-05-29T15:29:19.839Z,18976
2017-05-29T15:30:31.514Z,18848
2017-05-29T15:31:43.184Z,18560
2017-05-29T15:32:55.452Z,18528
2017-05-29T15:34:08.002Z,18688
2017-05-29T15:35:20.244Z,18464
2017-05-29T15:36:32.769Z,18528
2017-05-29T15:37:44.439Z,18688
2017-05-29T15:38:56.702Z,18528
2017-05-29T15:40:09.227Z,17824
2017-05-29T15:41:22.023Z,17664
2017-05-29T15:42:34.570Z,17600
2017-05-29T15:43:46.814Z,17344
2017-05-29T15:44:59.058Z,16480
2017-05-29T15:46:11.610Z,15640
2017-05-29T15:47:24.180Z,15472
2017-05-29T15:48:36.424Z,15368
2017-05-29T15:49:48.370Z,15256
2017-05-29T15:51:00.915Z,14844
2017-05-29T15:52:12.862Z,14188
2017-05-29T15:53:25.137Z,13612
2017-05-29T15:54:37.703Z,13124
2017-05-29T15:55:50.271Z,12700
2017-05-29T15:57:02.513Z,12332